Time;durP1;ratioP1;P1;durP2;ratioP2;P2;SDS_P1;SDS_P2;PMS_P1;PMS_P2;Temp;Humidity;BMP_temperature;BMP_pressure;BME280_temperature;BME280_humidity;BME280_pressure;Samples;Min_cycle;Max_cycle;Signal;HPM_P1;HPM_P2
2022/05/08 00:00:31;;;;;;;22.50;17.08;;;11.00;99.90;;;;;;4994304;28;20649;-83
2022/05/08 00:02:58;;;;;;;22.77;16.35;;;11.00;99.90;;;;;;4993454;28;20026;-82
2022/05/08 00:05:24;;;;;;;24.13;16.90;;;11.00;99.90;;;;;;4977651;28;20397;-83
2022/05/08 00:07:50;;;;;;;19.73;14.88;;;11.00;99.90;;;;;;4993917;28;20050;-83
2022/05/08 00:10:16;;;;;;;22.08;15.23;;;11.00;99.90;;;;;;4995237;28;20425;-83
2022/05/08 00:12:42;;;;;;;36.17;15.75;;;10.90;99.90;;;;;;5000831;28;20069;-82
2022/05/08 00:15:08;;;;;;;22.65;16.08;;;10.90;99.90;;;;;;4985357;28;20026;-82
2022/05/08 00:17:34;;;;;;;24.48;16.17;;;10.80;99.90;;;;;;4997012;28;20034;-82
2022/05/08 00:20:06;;;;;;;22.20;16.70;;;10.60;99.90;;;;;;4993756;28;20030;-83
2022/05/08 00:22:32;;;;;;;21.50;14.95;;;10.60;99.90;;;;;;4994933;28;20048;-83
2022/05/08 00:24:59;;;;;;;22.88;16.13;;;10.70;99.90;;;;;;4977281;28;20030;-82
2022/05/08 00:27:24;;;;;;;22.52;15.73;;;10.70;99.90;;;;;;4993429;28;20125;-83
2022/05/08 00:29:50;;;;;;;22.80;15.63;;;10.60;99.90;;;;;;4994872;28;20474;-83
2022/05/08 00:32:16;;;;;;;21.08;15.50;;;10.60;99.90;;;;;;4993024;28;20034;-83
2022/05/08 00:34:41;;;;;;;20.70;15.32;;;10.60;99.90;;;;;;4993955;28;20038;-83
2022/05/08 00:37:07;;;;;;;21.02;14.63;;;10.60;99.90;;;;;;4993172;28;20073;-83
2022/05/08 00:39:32;;;;;;;20.58;14.48;;;10.50;99.90;;;;;;4990993;28;20057;-83
2022/05/08 00:42:01;;;;;;;20.90;14.90;;;10.50;99.90;;;;;;4989861;28;20035;-82
2022/05/08 00:44:27;;;;;;;24.63;16.15;;;10.40;99.90;;;;;;5004311;28;20034;-83
2022/05/08 00:46:52;;;;;;;24.27;14.45;;;10.30;99.90;;;;;;5009439;28;20105;-83
2022/05/08 00:49:18;;;;;;;22.77;14.70;;;10.10;99.90;;;;;;4994526;28;20046;-83
2022/05/08 00:51:47;;;;;;;24.90;15.93;;;10.10;99.90;;;;;;4994400;28;20035;-83
2022/05/08 00:54:13;;;;;;;28.75;16.58;;;10.00;99.90;;;;;;4992452;28;20026;-82
2022/05/08 00:56:40;;;;;;;22.88;16.05;;;10.10;99.90;;;;;;4992773;28;20026;-82
2022/05/08 00:59:05;;;;;;;24.00;16.58;;;10.00;99.90;;;;;;5009118;28;20034;-82
2022/05/08 01:01:31;;;;;;;21.67;15.98;;;10.00;99.90;;;;;;5008871;28;20695;-83
2022/05/08 01:03:56;;;;;;;23.95;17.55;;;10.00;99.90;;;;;;5009334;28;20034;-82
2022/05/08 01:06:22;;;;;;;27.05;18.48;;;10.00;99.90;;;;;;4993970;28;20026;-83
2022/05/08 01:08:49;;;;;;;26.42;17.88;;;9.90;99.90;;;;;;4993764;28;20030;-83
2022/05/08 01:11:16;;;;;;;27.80;19.30;;;9.90;99.90;;;;;;4993656;28;20035;-83
2022/05/08 01:13:42;;;;;;;26.42;18.38;;;9.70;99.90;;;;;;4993778;28;20062;-82
2022/05/08 01:16:13;;;;;;;23.25;16.92;;;9.70;99.90;;;;;;4992919;28;20034;-82
2022/05/08 01:18:39;;;;;;;27.70;18.17;;;9.60;99.90;;;;;;4992750;28;20101;-83
2022/05/08 01:21:09;;;;;;;26.80;17.45;;;9.70;99.90;;;;;;5008984;28;20042;-82
2022/05/08 01:23:34;;;;;;;25.52;18.13;;;9.70;99.90;;;;;;4995236;28;20050;-83
2022/05/08 01:26:00;;;;;;;24.25;16.17;;;9.60;99.90;;;;;;5013247;28;20084;-82
2022/05/08 01:28:26;;;;;;;27.20;17.92;;;9.70;99.90;;;;;;4999046;28;20030;-82
2022/05/08 01:30:53;;;;;;;26.58;17.67;;;9.60;99.90;;;;;;4998392;28;20042;-82
2022/05/08 01:33:20;;;;;;;30.00;18.15;;;9.50;99.90;;;;;;4998242;28;20022;-83
2022/05/08 01:35:47;;;;;;;27.00;17.10;;;9.50;99.90;;;;;;4995205;28;20105;-82
2022/05/08 01:38:14;;;;;;;29.33;19.33;;;9.50;99.90;;;;;;4993874;28;20462;-83
2022/05/08 01:40:41;;;;;;;23.40;16.92;;;9.40;99.90;;;;;;4995319;28;20062;-83
2022/05/08 01:43:07;;;;;;;26.40;17.90;;;9.40;99.90;;;;;;4994472;28;20027;-83
2022/05/08 01:45:34;;;;;;;24.30;16.52;;;9.40;99.90;;;;;;4994644;28;20043;-83
2022/05/08 01:50:45;;;;;;;21.15;15.13;;;9.30;99.90;;;;;;4995162;28;20072;-82
2022/05/08 01:53:10;;;;;;;24.10;17.50;;;9.30;99.90;;;;;;4976398;28;20054;-82
2022/05/08 01:55:36;;;;;;;25.27;18.25;;;9.30;99.90;;;;;;4994012;28;20061;-83
2022/05/08 01:58:02;;;;;;;27.58;17.92;;;9.20;99.90;;;;;;4992303;28;20034;-83
2022/05/08 02:00:29;;;;;;;25.33;18.17;;;9.20;99.90;;;;;;4991865;28;20034;-83
2022/05/08 02:02:59;;;;;;;26.88;17.67;;;9.10;99.90;;;;;;4975638;28;20060;-83
2022/05/08 02:05:25;;;;;;;24.08;15.70;;;9.10;99.90;;;;;;4992321;28;20429;-83
2022/05/08 02:07:51;;;;;;;24.70;16.50;;;9.20;99.90;;;;;;5007086;28;20477;-83
2022/05/08 02:10:17;;;;;;;24.27;16.52;;;9.20;99.90;;;;;;5007978;28;20065;-82
2022/05/08 02:12:44;;;;;;;26.08;16.73;;;9.10;99.90;;;;;;4992830;28;20038;-82
2022/05/08 02:15:12;;;;;;;24.27;16.05;;;9.20;99.90;;;;;;4991750;28;20092;-83
2022/05/08 02:17:38;;;;;;;23.52;16.40;;;9.20;99.90;;;;;;4991797;28;20204;-83
2022/05/08 02:20:06;;;;;;;24.25;16.25;;;9.20;99.90;;;;;;4991503;28;20039;-82
2022/05/08 02:22:33;;;;;;;24.33;15.25;;;9.10;99.90;;;;;;4991173;28;20043;-82
2022/05/08 02:24:58;;;;;;;23.20;15.05;;;9.10;99.90;;;;;;4990952;28;20125;-82
2022/05/08 02:27:24;;;;;;;23.80;14.80;;;9.10;99.90;;;;;;4992686;28;20050;-82
2022/05/08 02:29:51;;;;;;;24.95;14.88;;;9.10;99.90;;;;;;4992256;28;20034;-82
2022/05/08 02:32:18;;;;;;;22.30;15.35;;;9.10;99.90;;;;;;4992034;28;20156;-82
2022/05/08 02:34:43;;;;;;;27.10;17.60;;;9.20;99.90;;;;;;4992901;28;20026;-83
2022/05/08 02:37:09;;;;;;;29.85;17.33;;;9.10;99.90;;;;;;4992976;28;20088;-83
2022/05/08 02:39:35;;;;;;;25.92;16.23;;;9.00;99.90;;;;;;4992759;28;20027;-83
2022/05/08 02:42:01;;;;;;;25.15;16.48;;;9.10;99.90;;;;;;4992348;28;20033;-82
2022/05/08 02:44:26;;;;;;;25.85;16.13;;;9.10;99.90;;;;;;4991787;28;20458;-82
2022/05/08 02:46:52;;;;;;;26.35;16.75;;;9.20;99.90;;;;;;4973983;28;20051;-83
2022/05/08 02:49:17;;;;;;;24.88;16.35;;;9.10;99.90;;;;;;4974801;28;20030;-84
2022/05/08 02:51:43;;;;;;;23.85;16.27;;;9.20;99.90;;;;;;4990883;28;20509;-84
2022/05/08 02:54:09;;;;;;;30.20;18.42;;;9.20;99.90;;;;;;4990995;28;20034;-84
2022/05/08 02:59:19;;;;;;;30.23;18.75;;;9.30;99.90;;;;;;4991824;28;20045;-83
2022/05/08 03:01:44;;;;;;;26.70;18.85;;;9.30;99.90;;;;;;4990964;28;20030;-83
2022/05/08 03:04:10;;;;;;;32.15;19.83;;;9.30;99.90;;;;;;4990367;28;20493;-83
2022/05/08 03:06:35;;;;;;;31.77;20.05;;;9.30;99.90;;;;;;4992009;28;20394;-83
2022/05/08 03:09:01;;;;;;;31.67;19.48;;;9.30;99.90;;;;;;4991962;28;20033;-84
2022/05/08 03:11:28;;;;;;;29.30;19.00;;;9.30;99.90;;;;;;4990593;28;20042;-84
2022/05/08 03:13:55;;;;;;;30.45;20.10;;;9.20;99.90;;;;;;4992257;28;20501;-84
2022/05/08 03:16:24;;;;;;;28.05;17.90;;;9.30;99.90;;;;;;4991932;28;20038;-83
2022/05/08 03:18:51;;;;;;;30.63;20.50;;;9.30;99.90;;;;;;4989526;28;20031;-83
2022/05/08 03:21:17;;;;;;;28.40;18.02;;;9.30;99.90;;;;;;4991003;28;20026;-84
2022/05/08 03:23:44;;;;;;;32.65;20.55;;;9.20;99.90;;;;;;4991888;28;20494;-84
2022/05/08 03:26:12;;;;;;;36.90;19.77;;;9.10;99.90;;;;;;4991836;28;20041;-83
2022/05/08 03:28:38;;;;;;;30.50;19.67;;;9.20;99.90;;;;;;4991937;28;20370;-84
2022/05/08 03:31:04;;;;;;;31.10;19.65;;;9.20;99.90;;;;;;4992140;28;20102;-83
2022/05/08 03:33:31;;;;;;;31.70;19.40;;;9.20;99.90;;;;;;4992072;28;20112;-84
2022/05/08 03:35:58;;;;;;;30.63;20.73;;;9.20;99.90;;;;;;4991074;28;20026;-83
2022/05/08 03:38:24;;;;;;;38.25;22.10;;;9.30;99.90;;;;;;4989801;28;20037;-84
2022/05/08 03:40:50;;;;;;;34.58;21.40;;;9.30;99.90;;;;;;4974242;28;20054;-83
2022/05/08 03:43:16;;;;;;;30.45;19.17;;;9.20;99.90;;;;;;4973971;28;20447;-84
2022/05/08 03:45:42;;;;;;;27.33;19.17;;;9.20;99.90;;;;;;4973684;28;20149;-84
2022/05/08 03:48:08;;;;;;;31.77;18.48;;;9.20;99.90;;;;;;4991547;28;20022;-84
2022/05/08 03:50:33;;;;;;;31.10;19.67;;;9.20;99.90;;;;;;4990759;28;20046;-84
2022/05/08 03:53:03;;;;;;;32.35;19.88;;;9.20;99.90;;;;;;4991306;28;20371;-83
2022/05/08 03:55:29;;;;;;;29.45;19.00;;;9.20;99.90;;;;;;4989318;28;20076;-83
2022/05/08 03:57:54;;;;;;;34.03;21.42;;;9.20;99.90;;;;;;4973903;28;20188;-83
2022/05/08 04:00:21;;;;;;;28.40;19.95;;;9.10;99.90;;;;;;4990927;28;20092;-83
2022/05/08 04:02:47;;;;;;;34.75;20.60;;;9.00;99.90;;;;;;4991456;28;20040;-83
2022/05/08 04:05:13;;;;;;;35.45;20.95;;;9.00;99.90;;;;;;4991863;28;20076;-83
2022/05/08 04:07:39;;;;;;;31.85;19.65;;;9.00;99.90;;;;;;4991958;28;20537;-84
2022/05/08 04:10:09;;;;;;;32.75;20.52;;;9.00;99.90;;;;;;4988878;28;20494;-83
2022/05/08 04:12:35;;;;;;;33.55;19.85;;;9.10;99.90;;;;;;4979676;28;20060;-84
2022/05/08 04:15:01;;;;;;;30.17;19.83;;;9.10;99.90;;;;;;4990949;28;20084;-84
2022/05/08 04:17:28;;;;;;;33.72;21.02;;;9.20;99.90;;;;;;4991649;28;20031;-83
2022/05/08 04:19:57;;;;;;;31.25;20.30;;;9.30;99.90;;;;;;4991431;28;20026;-83
2022/05/08 04:25:08;;;;;;;31.15;20.98;;;9.40;99.90;;;;;;4972180;28;20046;-83
2022/05/08 04:27:35;;;;;;;32.10;19.98;;;9.40;99.90;;;;;;4981378;28;20362;-83
2022/05/08 04:30:02;;;;;;;26.40;18.17;;;9.40;99.90;;;;;;4996964;28;20022;-83
2022/05/08 04:32:28;;;;;;;32.40;19.83;;;9.40;99.90;;;;;;4998755;28;20054;-83
2022/05/08 04:34:57;;;;;;;33.40;20.55;;;9.40;99.90;;;;;;4999413;28;20034;-84
2022/05/08 04:37:22;;;;;;;32.05;22.02;;;9.50;99.90;;;;;;5015873;28;20100;-84
2022/05/08 04:39:48;;;;;;;33.55;20.70;;;9.50;99.90;;;;;;5002925;28;20031;-84
2022/05/08 04:42:13;;;;;;;34.50;21.77;;;9.40;99.90;;;;;;5017303;28;20037;-84
2022/05/08 04:44:39;;;;;;;35.20;22.23;;;9.50;99.90;;;;;;5001445;28;20034;-84
2022/05/08 04:47:05;;;;;;;33.85;21.20;;;9.60;99.90;;;;;;4996811;28;20097;-84
2022/05/08 04:49:30;;;;;;;30.40;21.33;;;9.70;99.90;;;;;;4993610;28;20022;-83
2022/05/08 04:51:56;;;;;;;34.30;20.42;;;9.80;99.90;;;;;;4994070;28;20790;-83
2022/05/08 04:54:24;;;;;;;31.27;21.10;;;9.80;99.90;;;;;;4977725;28;20031;-84
2022/05/08 04:56:51;;;;;;;35.45;21.75;;;10.00;99.90;;;;;;4977772;28;20133;-84
2022/05/08 04:59:17;;;;;;;38.17;21.80;;;10.00;99.90;;;;;;4995180;28;20022;-84
2022/05/08 05:01:43;;;;;;;35.75;21.83;;;10.10;99.90;;;;;;4976803;28;20045;-84
2022/05/08 05:04:09;;;;;;;31.08;19.92;;;10.10;99.90;;;;;;4993580;28;20112;-84
2022/05/08 05:06:34;;;;;;;31.98;21.63;;;10.20;99.90;;;;;;4976985;28;20394;-84
2022/05/08 05:09:00;;;;;;;30.85;19.63;;;10.10;99.90;;;;;;4975521;28;20027;-84
2022/05/08 05:11:26;;;;;;;31.17;20.35;;;10.10;99.90;;;;;;4993550;28;20077;-84
2022/05/08 05:13:51;;;;;;;30.60;19.85;;;10.20;99.90;;;;;;4976043;28;20094;-84
2022/05/08 05:16:17;;;;;;;30.92;20.73;;;10.30;99.90;;;;;;4977023;28;20026;-84
2022/05/08 05:18:42;;;;;;;31.27;19.75;;;10.30;99.90;;;;;;4960755;28;20034;-84
2022/05/08 05:21:08;;;;;;;28.25;18.15;;;10.40;99.90;;;;;;4976677;28;20058;-84
2022/05/08 05:23:35;;;;;;;31.52;20.27;;;10.40;99.90;;;;;;4993941;28;20468;-84
2022/05/08 05:26:01;;;;;;;30.90;18.42;;;10.60;99.90;;;;;;4992871;28;20027;-84
2022/05/08 05:28:27;;;;;;;29.40;19.98;;;10.50;99.90;;;;;;4992074;28;20528;-84
2022/05/08 05:30:52;;;;;;;31.17;21.50;;;10.50;99.90;;;;;;4975711;28;20501;-83
2022/05/08 05:33:19;;;;;;;27.30;17.33;;;10.60;99.90;;;;;;4976411;28;20030;-84
2022/05/08 05:35:44;;;;;;;28.23;19.17;;;10.80;99.90;;;;;;4992773;28;20117;-84
2022/05/08 05:38:10;;;;;;;27.20;18.60;;;10.80;99.90;;;;;;4992356;28;20178;-84
2022/05/08 05:40:36;;;;;;;29.33;17.33;;;10.90;99.90;;;;;;4992260;28;20030;-84
2022/05/08 05:43:02;;;;;;;26.58;18.60;;;10.90;99.90;;;;;;4991763;28;20125;-84
2022/05/08 05:45:28;;;;;;;26.85;18.00;;;11.10;99.90;;;;;;4976289;28;20497;-84
2022/05/08 05:47:54;;;;;;;26.65;19.10;;;11.20;99.90;;;;;;4993777;28;20048;-83
2022/05/08 05:50:21;;;;;;;26.42;17.98;;;11.20;99.90;;;;;;5009333;28;20485;-84
2022/05/08 05:52:47;;;;;;;26.50;18.10;;;11.30;99.90;;;;;;4992777;28;20023;-84
2022/05/08 05:55:13;;;;;;;28.10;18.45;;;11.40;99.90;;;;;;4992287;28;20027;-84
2022/05/08 05:57:39;;;;;;;25.30;17.30;;;11.30;99.90;;;;;;4993470;28;20193;-84
2022/05/08 06:00:08;;;;;;;26.02;18.58;;;11.40;99.90;;;;;;4991820;28;20068;-84
2022/05/08 06:02:34;;;;;;;24.67;18.33;;;11.20;99.90;;;;;;4972414;28;20035;-84
2022/05/08 06:04:59;;;;;;;27.40;18.58;;;11.40;99.90;;;;;;4988972;28;20031;-84
2022/05/08 06:07:25;;;;;;;24.65;17.42;;;11.50;99.90;;;;;;4993213;28;20034;-84
2022/05/08 06:09:50;;;;;;;22.15;16.00;;;11.50;99.90;;;;;;4975808;28;20027;-84
2022/05/08 06:12:16;;;;;;;25.95;17.92;;;11.60;99.90;;;;;;4992980;28;20394;-84
2022/05/08 06:14:42;;;;;;;22.50;16.40;;;11.70;99.90;;;;;;5009158;28;20065;-84
2022/05/08 06:17:07;;;;;;;28.10;17.98;;;11.60;99.90;;;;;;4993817;28;20087;-83
2022/05/08 06:19:33;;;;;;;22.98;17.30;;;11.50;99.90;;;;;;4993811;28;20030;-83
2022/05/08 06:21:59;;;;;;;26.02;18.00;;;11.60;99.90;;;;;;4992620;28;20030;-83
2022/05/08 06:24:25;;;;;;;28.65;18.35;;;11.50;99.90;;;;;;4992448;28;20117;-83
2022/05/08 06:26:51;;;;;;;24.55;18.08;;;11.70;99.90;;;;;;4992860;28;20066;-83
2022/05/08 06:29:17;;;;;;;25.10;16.80;;;11.70;99.90;;;;;;4993831;28;20029;-83
2022/05/08 06:31:43;;;;;;;23.80;16.08;;;11.80;99.90;;;;;;4992680;28;20040;-84
2022/05/08 06:34:08;;;;;;;25.55;18.27;;;11.90;99.90;;;;;;4976317;28;20034;-84
2022/05/08 06:36:34;;;;;;;25.73;17.08;;;12.10;99.90;;;;;;4993797;28;20032;-83
2022/05/08 06:39:00;;;;;;;24.33;16.45;;;12.40;99.90;;;;;;4992495;28;20382;-83
2022/05/08 06:41:27;;;;;;;25.00;18.02;;;12.60;99.90;;;;;;4992479;28;20081;-83
2022/05/08 06:43:53;;;;;;;22.98;16.05;;;12.60;99.90;;;;;;4992124;28;20129;-83
2022/05/08 06:46:19;;;;;;;24.98;15.88;;;12.60;99.90;;;;;;4993370;28;20050;-84
2022/05/08 06:48:47;;;;;;;21.25;15.63;;;12.90;99.90;;;;;;4992391;28;20032;-84
2022/05/08 06:51:13;;;;;;;24.38;15.85;;;13.40;99.90;;;;;;4976567;28;20034;-84
2022/05/08 06:53:38;;;;;;;24.08;16.45;;;13.50;99.90;;;;;;4991545;28;20451;-83
2022/05/08 06:56:07;;;;;;;21.77;15.75;;;13.50;99.90;;;;;;4992290;28;20037;-83
2022/05/08 07:01:34;;;;;;;22.77;16.38;;;13.70;99.90;;;;;;4976273;28;20034;-83
2022/05/08 07:04:09;;;;;;;21.27;15.40;;;13.80;99.90;;;;;;4992348;28;20081;-83
2022/05/08 07:06:36;;;;;;;23.10;15.73;;;13.70;99.90;;;;;;4992350;28;20331;-84
2022/05/08 07:09:03;;;;;;;21.27;16.00;;;13.80;99.90;;;;;;4993500;28;20023;-83
2022/05/08 07:11:30;;;;;;;21.08;15.70;;;13.70;99.90;;;;;;4993024;28;20105;-84
2022/05/08 07:13:57;;;;;;;21.77;15.95;;;13.60;99.90;;;;;;4992126;28;20034;-83
2022/05/08 07:16:22;;;;;;;21.88;16.25;;;13.40;99.90;;;;;;4976321;28;20038;-83
2022/05/08 07:18:48;;;;;;;19.70;14.63;;;13.50;99.90;;;;;;4993429;28;20034;-83
2022/05/08 07:21:14;;;;;;;20.00;14.63;;;13.70;99.90;;;;;;4991557;28;20076;-84
2022/05/08 07:23:39;;;;;;;20.60;16.73;;;13.80;99.90;;;;;;4992839;28;20092;-84
2022/05/08 07:26:06;;;;;;;22.98;17.13;;;13.50;99.90;;;;;;4993078;28;20035;-83
2022/05/08 07:28:32;;;;;;;19.33;15.98;;;13.40;99.90;;;;;;4960096;28;20057;-83
2022/05/08 07:30:58;;;;;;;20.52;15.63;;;13.60;99.90;;;;;;4992695;28;20398;-83
2022/05/08 07:33:24;;;;;;;20.27;15.45;;;13.80;99.90;;;;;;4993073;28;20061;-83
2022/05/08 07:38:34;;;;;;;18.77;14.05;;;14.10;99.90;;;;;;4993223;28;20046;-83
2022/05/08 07:41:01;;;;;;;19.55;15.55;;;14.30;99.90;;;;;;4991527;28;20389;-84
2022/05/08 07:43:26;;;;;;;20.88;15.57;;;14.30;99.90;;;;;;4993314;28;20501;-84
2022/05/08 07:45:52;;;;;;;22.52;13.20;;;14.20;99.90;;;;;;4993144;28;20038;-84
2022/05/08 07:48:18;;;;;;;18.50;13.77;;;14.70;99.90;;;;;;4993353;28;20042;-83
2022/05/08 07:50:48;;;;;;;20.25;15.00;;;14.90;99.90;;;;;;4994992;28;20026;-83
2022/05/08 07:53:14;;;;;;;17.02;12.63;;;14.90;99.90;;;;;;4995974;28;20150;-83
2022/05/08 07:55:40;;;;;;;17.15;13.00;;;15.00;99.90;;;;;;4994612;28;20038;-83
2022/05/08 07:58:06;;;;;;;15.68;12.13;;;15.20;99.90;;;;;;4993544;28;20052;-83
2022/05/08 08:00:31;;;;;;;18.48;13.23;;;15.30;99.90;;;;;;4992149;28;20034;-84
2022/05/08 08:02:57;;;;;;;16.92;12.77;;;15.30;99.90;;;;;;4993821;28;20069;-84
2022/05/08 08:05:23;;;;;;;16.48;13.13;;;15.00;99.90;;;;;;4995903;28;20034;-83
2022/05/08 08:07:50;;;;;;;17.73;12.32;;;14.90;99.90;;;;;;4997686;28;20114;-84
2022/05/08 08:10:16;;;;;;;17.30;12.63;;;14.80;99.90;;;;;;4997807;28;20026;-83
2022/05/08 08:12:42;;;;;;;19.02;12.45;;;15.10;99.90;;;;;;4981370;28;20147;-84
2022/05/08 08:15:09;;;;;;;17.45;12.88;;;15.00;99.90;;;;;;4996930;28;20022;-83
2022/05/08 08:17:35;;;;;;;16.08;12.25;;;15.00;99.90;;;;;;4999039;28;20033;-83
2022/05/08 08:20:01;;;;;;;15.65;11.82;;;15.10;99.90;;;;;;4996996;28;20022;-83
2022/05/08 08:22:26;;;;;;;15.93;12.43;;;15.20;99.90;;;;;;4996422;28;20447;-83
2022/05/08 08:24:52;;;;;;;16.67;13.05;;;15.20;99.90;;;;;;5012811;28;20041;-83
2022/05/08 08:27:21;;;;;;;16.83;12.38;;;15.40;99.90;;;;;;4996440;28;20474;-83
2022/05/08 08:29:47;;;;;;;15.23;11.40;;;15.50;99.90;;;;;;4997633;28;20031;-83
2022/05/08 08:32:13;;;;;;;16.08;11.38;;;15.70;99.90;;;;;;4995503;28;20401;-83
2022/05/08 08:34:39;;;;;;;15.82;12.05;;;15.90;99.90;;;;;;4996735;28;20034;-83
2022/05/08 08:37:05;;;;;;;13.35;10.70;;;15.90;99.90;;;;;;4997586;28;20023;-83
2022/05/08 08:39:31;;;;;;;14.13;11.23;;;16.20;99.90;;;;;;4998034;28;20080;-84
2022/05/08 08:42:21;;;;;;;15.88;11.90;;;16.30;99.90;;;;;;4995476;28;20098;-84
2022/05/08 08:47:50;;;;;;;14.60;11.05;;;16.50;99.90;;;;;;4997602;28;20471;-83
2022/05/08 08:50:18;;;;;;;13.50;10.93;;;16.80;99.90;;;;;;4999364;28;20427;-84
2022/05/08 08:52:45;;;;;;;14.40;10.82;;;16.80;99.90;;;;;;4997561;28;20029;-84
2022/05/08 08:55:11;;;;;;;14.30;11.15;;;16.90;99.90;;;;;;4998917;28;20097;-84
2022/05/08 08:57:37;;;;;;;13.55;11.20;;;16.90;99.90;;;;;;4996760;28;20030;-83
2022/05/08 09:00:05;;;;;;;12.23;10.35;;;17.20;99.90;;;;;;4996736;28;20030;-84
2022/05/08 09:02:31;;;;;;;16.58;12.50;;;17.40;99.90;;;;;;4994343;28;20038;-83
2022/05/08 09:04:58;;;;;;;11.63;9.63;;;17.10;99.90;;;;;;4995997;28;20030;-84
2022/05/08 09:07:44;;;;;;;13.02;9.95;;;17.30;99.90;;;;;;4995007;28;20080;-83
2022/05/08 09:10:25;;;;;;;13.82;10.85;;;17.40;99.90;;;;;;4996422;28;20463;-83
2022/05/08 09:12:56;;;;;;;13.88;10.82;;;17.50;99.90;;;;;;4995571;28;20085;-83
2022/05/08 09:15:34;;;;;;;14.75;10.40;;;17.10;99.90;;;;;;5011439;28;20370;-84
2022/05/08 09:18:04;;;;;;;13.13;11.32;;;16.80;99.90;;;;;;4993617;28;20027;-84
2022/05/08 09:20:35;;;;;;;15.80;13.10;;;16.70;99.90;;;;;;4996188;28;20026;-84
2022/05/08 09:23:07;;;;;;;17.88;12.68;;;16.50;99.90;;;;;;4996966;28;20033;-83
2022/05/08 09:25:48;;;;;;;15.70;12.45;;;16.60;99.90;;;;;;5001964;28;20026;-83
2022/05/08 09:28:15;;;;;;;17.85;11.95;;;16.30;99.90;;;;;;5003410;28;20381;-84
2022/05/08 09:31:10;;;;;;;16.30;12.38;;;16.30;99.90;;;;;;5000425;28;20484;-84
2022/05/08 09:33:41;;;;;;;12.25;10.55;;;16.50;99.90;;;;;;4994450;28;20420;-84
2022/05/08 09:36:27;;;;;;;13.27;11.38;;;16.40;99.90;;;;;;4995117;28;20030;-84
2022/05/08 09:38:58;;;;;;;15.20;11.18;;;16.80;99.90;;;;;;4995982;28;20042;-84
2022/05/08 09:41:24;;;;;;;;;;;16.90;99.90;;;;;;4996363;28;20028;-84
2022/05/08 09:43:52;;;;;;;11.80;9.32;;;17.40;99.90;;;;;;5010260;28;20429;-84
2022/05/08 09:46:20;;;;;;;9.70;7.60;;;17.80;99.60;;;;;;4995317;28;20050;-84
2022/05/08 09:48:46;;;;;;;8.40;7.07;;;18.00;97.10;;;;;;5009344;28;20030;-84
2022/05/08 09:51:15;;;;;;;8.65;7.68;;;17.70;91.20;;;;;;4994546;28;20054;-84
2022/05/08 09:53:42;;;;;;;10.00;7.20;;;17.60;92.30;;;;;;4993205;28;20046;-84
2022/05/08 09:56:10;;;;;;;9.55;8.55;;;17.40;91.60;;;;;;4993096;28;20031;-84
2022/05/08 09:58:38;;;;;;;9.93;8.40;;;17.30;92.70;;;;;;5009319;28;20038;-84
2022/05/08 10:01:04;;;;;;;8.68;7.43;;;17.50;92.80;;;;;;4993815;28;20034;-84
2022/05/08 10:03:30;;;;;;;9.27;7.90;;;17.40;93.60;;;;;;5008742;28;20040;-84
2022/05/08 10:05:57;;;;;;;10.48;7.55;;;17.60;93.80;;;;;;4992712;28;20057;-83
2022/05/08 10:08:28;;;;;;;9.35;7.00;;;17.60;92.00;;;;;;4993026;28;20026;-84
2022/05/08 10:17:04;;;;;;;9.00;7.68;;;18.20;90.40;;;;;;4994255;28;20030;-83
2022/05/08 10:19:32;;;;;;;9.00;7.78;;;18.30;90.60;;;;;;4992789;28;20341;-83
2022/05/08 10:22:06;;;;;;;10.30;8.30;;;18.40;91.90;;;;;;4994019;28;20363;-84
2022/05/08 10:24:47;;;;;;;8.30;7.18;;;18.30;90.50;;;;;;4993342;28;20474;-84
2022/05/08 10:27:32;;;;;;;9.43;7.15;;;18.50;87.30;;;;;;4994939;28;20414;-83
2022/05/08 10:29:57;;;;;;;8.40;6.72;;;18.40;90.00;;;;;;4993140;28;20133;-83
2022/05/08 10:32:32;;;;;;;7.80;6.65;;;18.70;81.10;;;;;;4992959;28;20427;-84
2022/05/08 10:35:11;;;;;;;9.32;7.50;;;18.50;83.20;;;;;;4993442;28;20045;-83
2022/05/08 10:37:37;;;;;;;9.00;7.30;;;17.90;90.90;;;;;;4992050;28;20031;-84
2022/05/08 10:40:05;;;;;;;7.65;6.55;;;17.60;91.30;;;;;;4992170;28;20498;-84
2022/05/08 10:42:35;;;;;;;8.77;7.63;;;17.50;92.00;;;;;;4992714;28;20065;-84
2022/05/08 10:45:01;;;;;;;9.50;7.13;;;17.00;93.60;;;;;;4991569;28;20026;-84
2022/05/08 10:47:33;;;;;;;8.68;7.07;;;16.80;95.30;;;;;;4992103;28;20450;-84
2022/05/08 10:49:59;;;;;;;9.60;7.93;;;16.50;97.50;;;;;;4993284;28;20022;-83
2022/05/08 10:52:25;;;;;;;8.32;6.93;;;16.30;97.60;;;;;;4993175;28;20421;-84
2022/05/08 10:54:58;;;;;;;9.10;7.03;;;16.00;99.20;;;;;;4993443;28;20034;-83
2022/05/08 10:57:37;;;;;;;12.48;7.80;;;15.80;99.90;;;;;;4991861;28;20030;-83
2022/05/08 11:00:05;;;;;;;8.35;7.10;;;15.80;99.90;;;;;;4991441;28;20592;-84
2022/05/08 11:02:56;;;;;;;9.50;8.13;;;15.70;99.90;;;;;;4992884;28;20049;-84
2022/05/08 11:05:23;;;;;;;10.85;8.15;;;15.60;99.90;;;;;;4993694;28;20045;-84
2022/05/08 11:08:01;;;;;;;10.35;8.13;;;15.60;99.90;;;;;;4975713;28;20038;-83
2022/05/08 11:10:32;;;;;;;12.70;8.30;;;15.50;99.90;;;;;;5009973;28;20027;-83
2022/05/08 11:13:02;;;;;;;10.57;9.23;;;15.40;99.90;;;;;;4996433;28;20030;-83
2022/05/08 11:15:45;;;;;;;10.23;9.13;;;15.50;99.90;;;;;;4997572;28;20023;-83
2022/05/08 11:18:12;;;;;;;14.48;9.93;;;15.50;99.90;;;;;;5013032;28;20562;-83
2022/05/08 11:20:52;;;;;;;12.40;9.43;;;15.40;99.90;;;;;;4996490;28;20030;-84
2022/05/08 11:23:22;;;;;;;10.70;9.38;;;15.10;99.90;;;;;;4993043;28;20022;-83
2022/05/08 11:25:52;;;;;;;12.10;10.00;;;15.10;99.90;;;;;;4991758;28;20030;-84
2022/05/08 11:28:20;;;;;;;11.05;8.75;;;15.20;99.90;;;;;;4976418;28;20041;-83
2022/05/08 11:30:46;;;;;;;11.98;9.18;;;15.40;99.90;;;;;;4991540;28;20034;-84
2022/05/08 11:36:06;;;;;;;12.93;9.65;;;15.60;99.90;;;;;;4994494;28;20041;-83
2022/05/08 11:38:48;;;;;;;10.93;9.75;;;15.90;99.90;;;;;;4993441;28;20058;-84
2022/05/08 11:41:18;;;;;;;11.20;8.82;;;15.90;99.90;;;;;;4995319;28;20034;-83
2022/05/08 11:43:45;;;;;;;15.45;9.43;;;16.20;99.90;;;;;;4996949;28;20493;-84
2022/05/08 11:46:16;;;;;;;11.85;9.73;;;16.30;99.90;;;;;;5012250;28;20456;-83
2022/05/08 11:48:47;;;;;;;10.80;9.05;;;16.60;99.90;;;;;;5011945;28;20026;-84
2022/05/08 11:51:18;;;;;;;10.38;8.95;;;16.70;99.90;;;;;;4997403;28;20030;-83
2022/05/08 11:53:52;;;;;;;11.70;9.32;;;16.80;99.90;;;;;;4997413;28;20037;-84
2022/05/08 11:56:29;;;;;;;10.95;8.40;;;17.20;98.90;;;;;;4997106;28;20037;-84
2022/05/08 11:58:57;;;;;;;9.40;7.25;;;17.40;97.20;;;;;;4996867;28;20421;-84
2022/05/08 12:01:33;;;;;;;9.57;8.10;;;17.70;95.20;;;;;;4996145;28;20061;-83
2022/05/08 12:04:21;;;;;;;11.63;8.88;;;17.80;95.40;;;;;;4996986;28;20037;-83
2022/05/08 12:06:59;;;;;;;9.57;8.57;;;18.00;93.10;;;;;;4996295;28;20022;-83
2022/05/08 12:09:28;;;;;;;12.25;7.68;;;18.10;92.50;;;;;;4996412;28;20018;-83
2022/05/08 12:11:54;;;;;;;9.55;7.88;;;18.30;94.90;;;;;;4996770;28;20466;-84
2022/05/08 12:14:36;;;;;;;9.05;7.45;;;18.20;91.80;;;;;;4996467;28;20045;-83
2022/05/08 12:17:02;;;;;;;11.30;9.02;;;18.40;91.90;;;;;;4996680;28;20033;-83
2022/05/08 12:19:29;;;;;;;8.93;7.90;;;18.40;92.90;;;;;;4995705;28;20033;-83
2022/05/08 12:21:55;;;;;;;11.30;8.10;;;18.10;91.10;;;;;;4996332;28;20027;-83
2022/05/08 12:24:22;;;;;;;9.40;8.40;;;17.70;94.90;;;;;;5011469;28;20108;-83
2022/05/08 12:26:49;;;;;;;10.23;8.85;;;17.60;95.00;;;;;;4996572;28;20474;-83
2022/05/08 12:29:25;;;;;;;17.40;8.43;;;17.30;97.90;;;;;;4995714;28;20036;-84
2022/05/08 12:31:51;;;;;;;10.07;8.38;;;16.80;97.20;;;;;;5011559;28;20031;-83
2022/05/08 12:34:19;;;;;;;10.90;6.53;;;16.30;98.60;;;;;;4996423;28;20394;-84
2022/05/08 12:36:45;;;;;;;20.98;6.75;;;16.00;98.60;;;;;;4996672;28;20113;-83
2022/05/08 12:39:11;;;;;;;9.68;6.72;;;15.90;99.60;;;;;;5011270;28;20561;-83
2022/05/08 12:41:38;;;;;;;8.05;6.38;;;15.70;99.90;;;;;;4995761;28;20501;-83
2022/05/08 12:44:05;;;;;;;7.65;6.13;;;15.50;99.90;;;;;;4995651;28;20038;-83
2022/05/08 12:46:31;;;;;;;8.45;6.90;;;15.40;99.90;;;;;;4995546;28;20129;-83
2022/05/08 12:49:02;;;;;;;8.07;6.32;;;15.40;99.90;;;;;;4995540;28;20022;-84
2022/05/08 12:51:28;;;;;;;7.93;6.72;;;15.50;99.90;;;;;;4994001;28;20046;-83
2022/05/08 12:53:54;;;;;;;9.23;7.20;;;15.70;99.90;;;;;;4994649;28;20072;-83
2022/05/08 12:56:19;;;;;;;8.93;6.75;;;15.60;99.90;;;;;;5010203;28;20041;-84
2022/05/08 13:01:29;;;;;;;11.85;7.85;;;15.70;99.90;;;;;;4995056;28;20053;-83
2022/05/08 13:03:55;;;;;;;9.02;7.35;;;15.70;99.90;;;;;;5010404;28;20035;-84